Time;durP1;ratioP1;P1;durP2;ratioP2;P2;SDS_P1;SDS_P2;PMS_P1;PMS_P2;Temp;Humidity;BMP_temperature;BMP_pressure;BME280_temperature;BME280_humidity;BME280_pressure;Samples;Min_cycle;Max_cycle;Signal;HPM_P1;HPM_P2
2021/09/16 00:02:00;;;;;;;23.22;18.60;;;;;;;15.66;82.61;100491.76;1643558;84;25873;-79
2021/09/16 00:04:28;;;;;;;25.82;18.92;;;;;;;15.65;82.60;100490.12;1646878;84;25385;-78
2021/09/16 00:06:55;;;;;;;22.45;18.73;;;;;;;15.64;82.75;100490.64;1650983;84;27509;-79
2021/09/16 00:09:22;;;;;;;23.77;17.75;;;;;;;15.65;82.78;100480.67;1680256;84;25949;-78
2021/09/16 00:11:49;;;;;;;23.62;18.77;;;;;;;15.65;82.84;100481.51;1665538;84;25833;-79
2021/09/16 00:14:16;;;;;;;25.92;17.27;;;;;;;15.66;82.84;100480.95;1691569;83;25809;-78
2021/09/16 00:16:43;;;;;;;25.57;18.77;;;;;;;15.66;82.86;100479.09;1680034;83;26527;-78
2021/09/16 00:19:10;;;;;;;24.92;18.37;;;;;;;15.67;82.89;100476.70;1737534;81;27533;-78
2021/09/16 00:21:37;;;;;;;22.90;17.77;;;;;;;15.67;82.89;100474.52;1745594;80;25976;-78
2021/09/16 00:24:05;;;;;;;23.87;17.98;;;;;;;15.69;82.92;100475.96;1726050;81;26008;-78
2021/09/16 00:26:32;;;;;;;25.40;19.37;;;;;;;15.70;82.87;100472.19;1715364;81;25861;-78
2021/09/16 00:28:59;;;;;;;26.33;19.50;;;;;;;15.69;82.92;100473.26;1749391;81;25733;-78
2021/09/16 00:31:26;;;;;;;24.45;18.95;;;;;;;15.70;82.93;100472.19;1726768;81;27601;-78
2021/09/16 00:33:53;;;;;;;21.65;18.75;;;;;;;15.70;82.95;100468.66;1713849;81;25869;-78
2021/09/16 00:36:20;;;;;;;25.65;19.00;;;;;;;15.70;82.96;100475.41;1726294;81;26535;-79
2021/09/16 00:38:47;;;;;;;23.92;18.70;;;;;;;15.70;83.06;100469.49;1748948;81;25850;-77
2021/09/16 00:41:16;;;;;;;24.60;18.20;;;;;;;15.72;82.99;100470.09;1726575;81;25821;-77
2021/09/16 00:43:43;;;;;;;24.87;18.65;;;;;;;15.73;82.92;100466.36;1700163;81;28298;-78
2021/09/16 00:46:10;;;;;;;23.90;18.60;;;;;;;15.75;82.89;100457.51;1724879;81;25890;-78
2021/09/16 00:48:37;;;;;;;24.55;19.02;;;;;;;15.75;82.93;100453.45;1749554;81;25739;-78
2021/09/16 00:51:04;;;;;;;26.97;19.23;;;;;;;15.74;82.88;100455.84;1722574;81;25902;-79
2021/09/16 00:53:32;;;;;;;27.00;19.98;;;;;;;15.75;82.86;100444.52;1714222;81;25308;-78
2021/09/16 00:56:00;;;;;;;26.12;19.65;;;;;;;15.74;82.91;100445.04;1724565;81;27664;-77
2021/09/16 00:58:29;;;;;;;28.65;21.35;;;;;;;15.75;82.91;100445.88;1748954;81;25946;-78
2021/09/16 01:00:56;;;;;;;26.62;20.72;;;;;;;15.74;82.95;100446.94;1726355;81;25784;-79
2021/09/16 01:03:25;;;;;;;31.00;21.05;;;;;;;15.73;82.95;100449.33;1713536;81;25985;-77
2021/09/16 01:05:52;;;;;;;29.37;21.30;;;;;;;15.73;82.87;100449.33;1722200;81;25848;-78
2021/09/16 01:08:20;;;;;;;27.07;20.55;;;;;;;15.73;82.90;100453.38;1749189;81;28221;-77
2021/09/16 01:10:48;;;;;;;28.95;21.48;;;;;;;15.75;83.02;100455.32;1726330;81;25859;-78
2021/09/16 01:13:15;;;;;;;31.15;20.92;;;;;;;15.74;82.91;100450.98;1770620;80;25816;-78
2021/09/16 01:15:45;;;;;;;31.05;23.10;;;;;;;15.75;83.00;100453.97;1747502;81;25820;-77
2021/09/16 01:18:12;;;;;;;31.33;22.30;;;;;;;15.74;83.04;100449.09;1770952;79;25866;-78
2021/09/16 01:20:40;;;;;;;28.92;22.65;;;;;;;15.73;83.06;100444.75;1725547;81;27103;-78
2021/09/16 01:23:07;;;;;;;29.95;22.48;;;;;;;15.73;83.08;100439.87;1720487;81;25796;-78
2021/09/16 01:25:34;;;;;;;32.50;23.47;;;;;;;15.72;83.07;100438.20;1744849;81;26152;-78
2021/09/16 01:28:03;;;;;;;36.28;23.62;;;;;;;15.72;83.13;100436.85;1749965;81;25917;-78
2021/09/16 01:30:30;;;;;;;32.17;22.30;;;;;;;15.71;83.29;100432.00;1747149;79;25859;-78
2021/09/16 01:32:58;;;;;;;30.50;23.05;;;;;;;15.70;83.19;100434.91;1722583;81;27670;-78
2021/09/16 01:35:26;;;;;;;31.70;21.57;;;;;;;15.67;83.28;100429.45;1744059;81;25911;-77
2021/09/16 01:37:54;;;;;;;31.37;22.35;;;;;;;15.68;83.29;100428.39;1724180;81;25316;-78
2021/09/16 01:40:21;;;;;;;32.93;24.32;;;;;;;15.67;83.32;100421.87;1726350;81;26489;-78
2021/09/16 01:42:49;;;;;;;33.70;23.07;;;;;;;15.67;83.31;100421.35;1749718;81;25803;-78
2021/09/16 01:45:20;;;;;;;27.62;22.35;;;;;;;15.67;83.29;100419.17;1751867;81;28673;-78
2021/09/16 01:47:48;;;;;;;31.12;23.15;;;;;;;15.69;83.29;100420.60;1697800;81;26547;-78
2021/09/16 01:50:19;;;;;;;32.53;23.25;;;;;;;15.68;83.21;100413.53;1726332;81;25752;-78
2021/09/16 01:52:46;;;;;;;;;;;;;;;15.67;83.21;100413.25;1753302;81;25827;-78
2021/09/16 01:55:15;;;;;;;33.42;23.05;;;;;;;15.66;83.20;100411.58;1744882;81;25801;-79
2021/09/16 01:57:42;;;;;;;30.52;22.80;;;;;;;15.65;83.19;100406.42;1745316;81;28170;-78
2021/09/16 02:00:11;;;;;;;30.15;22.65;;;;;;;15.65;83.14;100406.42;1705824;81;25758;-78
2021/09/16 02:02:42;;;;;;;30.97;23.25;;;;;;;15.65;83.11;100399.67;1753306;80;25824;-78
2021/09/16 02:05:10;;;;;;;34.25;23.07;;;;;;;15.64;83.07;100396.66;1734349;81;26611;-80
2021/09/16 02:07:37;;;;;;;33.20;23.30;;;;;;;15.62;83.04;100394.19;1709447;81;25870;-77
2021/09/16 02:10:06;;;;;;;35.30;23.85;;;;;;;15.64;83.12;100396.66;1727196;81;27760;-78
2021/09/16 02:12:33;;;;;;;29.52;23.15;;;;;;;15.65;83.05;100395.09;1750361;81;25904;-79
2021/09/16 02:15:00;;;;;;;29.35;23.27;;;;;;;15.64;82.96;100394.78;1782729;79;25874;-78
2021/09/16 02:17:27;;;;;;;30.62;23.62;;;;;;;15.67;83.04;100398.92;1702195;81;25891;-78
2021/09/16 02:19:54;;;;;;;29.75;24.02;;;;;;;15.65;82.92;100395.62;1730535;81;26220;-78
2021/09/16 02:22:22;;;;;;;38.25;24.95;;;;;;;15.64;82.95;100394.78;1751352;81;28132;-78
2021/09/16 02:24:49;;;;;;;32.48;24.07;;;;;;;15.64;83.09;100392.08;1754655;79;25787;-78
2021/09/16 02:27:16;;;;;;;33.63;23.95;;;;;;;15.63;82.96;100389.06;1719711;81;25344;-79
2021/09/16 02:29:43;;;;;;;29.48;22.77;;;;;;;15.63;83.24;100386.92;1751625;81;25830;-78
2021/09/16 02:32:10;;;;;;;33.30;24.63;;;;;;;15.61;83.17;100384.97;1752163;81;26447;-78
2021/09/16 02:34:37;;;;;;;35.38;25.48;;;;;;;15.59;83.21;100379.77;1751996;81;27510;-79
2021/09/16 02:37:04;;;;;;;35.60;25.17;;;;;;;15.57;83.26;100373.77;1729434;81;25813;-78
2021/09/16 02:39:31;;;;;;;37.88;26.07;;;;;;;15.59;83.30;100380.32;1751586;80;25777;-78
2021/09/16 02:41:58;;;;;;;34.45;24.65;;;;;;;15.57;83.32;100372.42;1749790;81;26626;-79
2021/09/16 02:44:25;;;;;;;34.78;24.75;;;;;;;15.58;83.42;100370.55;1752200;80;26601;-78
2021/09/16 02:46:52;;;;;;;38.67;26.77;;;;;;;15.58;83.35;100371.91;1706065;81;27593;-78
2021/09/16 02:49:19;;;;;;;32.67;25.30;;;;;;;15.58;83.53;100365.16;1778828;79;25941;-79
2021/09/16 02:51:46;;;;;;;33.80;25.40;;;;;;;15.55;83.38;100363.73;1736864;81;25787;-78
2021/09/16 02:54:13;;;;;;;35.90;27.30;;;;;;;15.57;83.59;100360.83;1715413;81;25964;-78
2021/09/16 02:56:40;;;;;;;34.43;26.42;;;;;;;15.58;83.54;100366.50;1660402;83;25862;-78
2021/09/16 02:59:08;;;;;;;37.20;26.33;;;;;;;15.56;83.54;100365.39;1660296;82;27578;-78
2021/09/16 03:01:35;;;;;;;39.83;27.15;;;;;;;15.55;83.52;100359.67;1708930;83;25826;-79
2021/09/16 03:04:02;;;;;;;34.88;25.48;;;;;;;15.56;83.57;100359.98;1683352;83;25840;-79
2021/09/16 03:06:29;;;;;;;37.98;26.10;;;;;;;15.57;83.56;100360.83;1640298;83;25711;-78
2021/09/16 03:08:56;;;;;;;40.80;27.40;;;;;;;15.56;83.69;100361.86;1706402;83;25952;-78
2021/09/16 03:11:23;;;;;;;36.20;25.37;;;;;;;15.56;83.67;100360.51;1681625;83;27598;-79
2021/09/16 03:13:50;;;;;;;39.08;26.60;;;;;;;15.55;83.66;100358.84;1635560;83;25818;-79
2021/09/16 03:16:17;;;;;;;37.67;26.07;;;;;;;15.55;83.68;100356.97;1684623;83;26532;-78
2021/09/16 03:18:44;;;;;;;34.60;26.57;;;;;;;15.53;83.75;100352.33;1712481;82;25946;-78
2021/09/16 03:21:11;;;;;;;37.60;26.45;;;;;;;15.52;83.77;100356.09;1704453;83;25757;-78
2021/09/16 03:23:38;;;;;;;39.27;27.07;;;;;;;15.51;83.87;100356.30;1656467;83;28745;-78
2021/09/16 03:26:06;;;;;;;35.52;26.27;;;;;;;15.52;83.82;100353.91;1656716;83;26705;-79
2021/09/16 03:28:37;;;;;;;33.25;24.67;;;;;;;15.52;83.81;100354.74;1708392;82;25823;-77
2021/09/16 03:31:02;;;;;;;41.28;28.47;;;;;;;15.54;83.87;100355.86;1705868;82;26587;-78
2021/09/16 03:33:29;;;;;;;35.90;26.40;;;;;;;15.52;83.84;100350.69;1662509;83;25850;-79
2021/09/16 03:35:56;;;;;;;43.50;26.70;;;;;;;15.52;83.85;100355.26;1661148;83;27532;-78
2021/09/16 03:38:23;;;;;;;37.42;26.27;;;;;;;15.52;83.87;100356.09;1708246;82;25963;-78
2021/09/16 03:40:50;;;;;;;38.78;27.75;;;;;;;15.52;83.84;100349.86;1707731;82;25924;-78
2021/09/16 03:43:17;;;;;;;43.38;27.62;;;;;;;15.51;83.92;100348.20;1656845;83;26676;-79
2021/09/16 03:45:44;;;;;;;35.73;26.62;;;;;;;15.51;84.01;100345.50;1657387;83;25969;-78
2021/09/16 03:48:11;;;;;;;36.40;27.58;;;;;;;15.49;84.04;100347.08;1706475;83;27624;-78
2021/09/16 03:50:39;;;;;;;38.00;27.13;;;;;;;15.49;84.09;100346.25;1708067;83;26584;-78
2021/09/16 03:53:06;;;;;;;43.92;28.00;;;;;;;15.47;84.17;100348.34;1680144;83;25991;-78
2021/09/16 03:55:33;;;;;;;39.42;27.55;;;;;;;15.46;84.28;100342.15;1634103;83;26258;-78
2021/09/16 03:58:00;;;;;;;38.38;26.87;;;;;;;15.44;84.28;100342.87;1680952;83;25352;-79
2021/09/16 04:00:28;;;;;;;37.78;25.97;;;;;;;15.48;84.28;100344.09;1680633;83;27451;-78
2021/09/16 04:02:55;;;;;;;37.88;27.05;;;;;;;15.50;84.34;100330.36;1634218;85;33161;-80
2021/09/16 04:05:22;;;;;;;40.50;28.67;;;;;;;15.51;84.38;100330.66;1584912;86;25897;-77
2021/09/16 04:07:54;;;;;;;43.28;28.55;;;;;;;15.50;84.37;100333.06;1683660;82;26282;-78
2021/09/16 04:10:21;;;;;;;38.98;29.63;;;;;;;15.48;84.43;100330.60;1683011;83;25976;-78
2021/09/16 04:12:48;;;;;;;43.08;28.52;;;;;;;15.49;84.49;100330.05;1592789;85;27476;-79
2021/09/16 04:15:15;;;;;;;40.80;28.45;;;;;;;15.46;84.66;100327.30;1639636;84;25925;-78
2021/09/16 04:17:42;;;;;;;42.53;28.17;;;;;;;15.44;84.60;100332.07;1683794;84;25841;-78
2021/09/16 04:20:10;;;;;;;37.48;27.60;;;;;;;15.43;84.73;100328.57;1696597;84;25987;-78
2021/09/16 04:22:37;;;;;;;45.50;29.67;;;;;;;15.39;84.98;100321.95;1627638;84;26322;-78
2021/09/16 04:25:06;;;;;;;37.88;27.73;;;;;;;15.39;85.11;100338.14;1632015;85;27473;-78
2021/09/16 04:27:33;;;;;;;36.40;26.55;;;;;;;15.38;85.14;100331.59;1670489;84;25834;-78
2021/09/16 04:30:00;;;;;;;40.10;30.40;;;;;;;15.40;85.26;100326.80;1698666;84;25704;-77
2021/09/16 04:32:27;;;;;;;38.50;29.48;;;;;;;15.41;85.32;100325.24;1632270;84;25958;-78
2021/09/16 04:34:54;;;;;;;39.88;31.55;;;;;;;15.42;85.44;100317.42;1654326;84;25867;-78
2021/09/16 04:37:21;;;;;;;36.88;29.80;;;;;;;15.42;85.62;100318.78;1702930;82;27559;-78
2021/09/16 04:39:48;;;;;;;39.60;30.20;;;;;;;15.42;85.73;100312.03;1703015;83;25933;-79
2021/09/16 04:42:15;;;;;;;40.12;30.30;;;;;;;15.42;85.90;100317.95;1653349;84;25798;-78
2021/09/16 04:44:42;;;;;;;59.70;48.15;;;;;;;15.41;85.90;100323.06;1654391;84;26576;-78
2021/09/16 04:47:09;;;;;;;71.22;60.67;;;;;;;15.42;85.96;100320.12;1702412;81;25975;-80
2021/09/16 04:49:36;;;;;;;80.00;66.05;;;;;;;15.45;86.32;100320.24;1703656;84;28175;-78
2021/09/16 04:52:03;;;;;;;72.03;59.88;;;;;;;15.46;86.23;100319.72;1653861;84;25913;-78
2021/09/16 04:54:30;;;;;;;62.90;51.73;;;;;;;15.48;86.51;100324.38;1678265;84;25746;-79
2021/09/16 04:56:57;;;;;;;55.92;44.15;;;;;;;15.46;86.33;100317.02;1703342;84;26522;-78
2021/09/16 04:59:24;;;;;;;44.53;37.00;;;;;;;15.49;86.68;100317.39;1653430;84;25930;-78
2021/09/16 05:01:51;;;;;;;43.60;34.83;;;;;;;15.49;86.54;100315.20;1606791;84;28368;-78
2021/09/16 05:04:18;;;;;;;46.30;35.08;;;;;;;15.49;86.55;100310.64;1631560;84;26071;-78
2021/09/16 05:06:45;;;;;;;45.50;36.15;;;;;;;15.51;86.71;100309.88;1702734;82;25873;-78
2021/09/16 05:09:12;;;;;;;41.83;31.85;;;;;;;15.52;86.72;100306.67;1703108;83;25962;-78
2021/09/16 05:11:41;;;;;;;44.50;31.42;;;;;;;15.49;86.60;100306.59;1653543;83;25876;-78
2021/09/16 05:14:14;;;;;;;44.38;31.15;;;;;;;15.49;86.81;100302.54;1654274;84;27428;-79
2021/09/16 05:16:42;;;;;;;43.83;32.63;;;;;;;15.47;86.88;100295.71;1701346;84;26033;-78
2021/09/16 05:19:09;;;;;;;38.90;31.77;;;;;;;15.47;87.09;100293.02;1701485;84;25865;-78
2021/09/16 05:21:36;;;;;;;45.67;31.30;;;;;;;15.46;87.15;100296.78;1656407;84;26112;-78
2021/09/16 05:24:04;;;;;;;44.73;30.37;;;;;;;15.42;87.13;100292.30;1682340;82;25798;-79
2021/09/16 05:26:31;;;;;;;44.53;32.63;;;;;;;15.43;87.40;100287.25;1706352;83;27438;-77
2021/09/16 05:28:58;;;;;;;45.90;32.40;;;;;;;15.44;87.58;100289.72;1706286;83;25954;-78
2021/09/16 05:31:25;;;;;;;42.55;32.33;;;;;;;15.43;87.89;100298.88;1676779;84;25890;-78
2021/09/16 05:33:52;;;;;;;49.75;33.65;;;;;;;15.43;87.77;100298.88;1631262;84;25859;-78
2021/09/16 05:36:19;;;;;;;43.78;32.65;;;;;;;15.46;87.98;100300.83;1701654;82;25840;-78
2021/09/16 05:38:46;;;;;;;45.40;33.38;;;;;;;15.44;87.90;100294.28;1701406;82;27610;-78
2021/09/16 05:41:13;;;;;;;44.42;33.00;;;;;;;15.47;87.89;100297.06;1652172;84;25966;-79
2021/09/16 05:43:40;;;;;;;46.95;32.88;;;;;;;15.46;87.98;100287.33;1653808;84;26003;-78
2021/09/16 05:46:07;;;;;;;47.98;34.18;;;;;;;15.46;88.19;100284.11;1701613;84;26532;-78
2021/09/16 05:48:34;;;;;;;42.05;32.50;;;;;;;15.47;88.00;100295.71;1701638;82;25856;-79
2021/09/16 06:03:02;;;;;;;45.98;34.25;;;;;;;16.22;86.61;100291.07;1808518;78;25686;-78
2021/09/16 06:05:29;;;;;;;41.68;32.30;;;;;;;16.09;87.11;100290.73;1745868;81;25958;-78
2021/09/16 06:07:56;;;;;;;56.00;44.58;;;;;;;16.03;87.43;100294.88;1703748;81;27640;-78
2021/09/16 06:10:23;;;;;;;44.77;35.65;;;;;;;15.99;87.69;100297.75;1725048;80;25821;-78
2021/09/16 06:12:50;;;;;;;46.35;33.13;;;;;;;15.96;87.73;100303.59;1763383;81;26367;-78
2021/09/16 06:15:17;;;;;;;41.15;30.48;;;;;;;15.94;87.81;100306.54;1721094;80;26466;-78
2021/09/16 06:17:44;;;;;;;41.13;31.33;;;;;;;15.92;87.97;100297.84;1668652;81;25876;-78
2021/09/16 06:20:12;;;;;;;42.48;31.73;;;;;;;15.93;88.13;100292.72;1737107;81;27440;-78
2021/09/16 06:22:40;;;;;;;45.03;33.38;;;;;;;15.93;88.19;100287.31;1722315;81;25820;-78
2021/09/16 06:25:08;;;;;;;46.08;33.73;;;;;;;15.94;88.26;100289.50;1718020;81;25832;-79
2021/09/16 06:27:35;;;;;;;45.98;35.45;;;;;;;15.92;88.22;100288.38;1700435;81;26652;-78
2021/09/16 06:30:04;;;;;;;45.75;33.70;;;;;;;15.87;88.35;100281.48;1727908;81;25803;-78
2021/09/16 06:32:33;;;;;;;43.02;34.03;;;;;;;15.84;88.56;100282.48;1714844;81;27480;-78
2021/09/16 06:35:00;;;;;;;48.17;35.00;;;;;;;15.83;88.72;100282.99;1721938;81;25864;-78
2021/09/16 06:37:27;;;;;;;52.03;37.40;;;;;;;15.82;88.72;100280.02;1694305;81;25842;-78
2021/09/16 06:39:54;;;;;;;51.18;37.93;;;;;;;15.82;88.80;100283.23;1687971;82;25820;-78
2021/09/16 06:42:21;;;;;;;55.55;37.00;;;;;;;15.83;88.87;100281.64;1749351;81;25833;-79
2021/09/16 06:44:48;;;;;;;56.95;36.90;;;;;;;15.86;89.09;100287.13;1670413;81;27383;-79
2021/09/16 06:47:15;;;;;;;48.25;35.20;;;;;;;15.87;89.30;100284.70;1687985;81;25862;-78
2021/09/16 06:49:46;;;;;;;48.87;34.83;;;;;;;15.87;89.19;100283.35;1720630;80;25911;-78
2021/09/16 06:52:16;;;;;;;44.42;33.78;;;;;;;15.88;89.27;100275.56;1756953;81;25906;-78
2021/09/16 06:54:44;;;;;;;42.35;33.70;;;;;;;15.90;89.32;100267.53;1710072;81;25944;-78
2021/09/16 06:57:11;;;;;;;43.83;33.18;;;;;;;15.94;89.44;100265.19;1712259;81;27441;-78
2021/09/16 06:59:38;;;;;;;46.70;34.58;;;;;;;15.96;89.59;100265.26;1735486;81;25745;-78
2021/09/16 07:02:05;;;;;;;47.43;33.98;;;;;;;16.00;89.65;100270.50;1755310;79;25875;-78
2021/09/16 07:04:32;;;;;;;45.00;34.25;;;;;;;16.06;89.95;100276.84;1728506;81;25886;-78
2021/09/16 07:07:03;;;;;;;48.65;35.80;;;;;;;16.11;89.72;100281.05;1691764;81;25852;-78
2021/09/16 07:09:28;;;;;;;45.03;33.70;;;;;;;16.13;89.77;100277.06;1727710;81;28208;-79
2021/09/16 07:11:55;;;;;;;47.38;35.03;;;;;;;16.17;89.90;100283.65;1732806;81;25992;-78
2021/09/16 07:14:24;;;;;;;45.40;34.20;;;;;;;16.21;89.84;100289.41;1723842;80;25761;-78
2021/09/16 07:16:51;;;;;;;42.40;33.45;;;;;;;16.24;89.83;100284.91;1697537;80;25328;-78
2021/09/16 07:19:19;;;;;;;43.00;32.70;;;;;;;16.29;89.88;100281.52;1720381;80;26208;-79
2021/09/16 07:21:46;;;;;;;41.25;31.25;;;;;;;16.34;89.92;100283.00;1762515;81;27447;-78
2021/09/16 07:24:14;;;;;;;46.45;34.30;;;;;;;16.39;89.88;100274.48;1756676;80;26523;-78
2021/09/16 07:26:42;;;;;;;44.50;33.42;;;;;;;16.44;89.89;100279.20;1693012;81;25860;-78
2021/09/16 07:29:10;;;;;;;45.28;33.48;;;;;;;16.46;89.72;100275.20;1760782;81;25886;-79
2021/09/16 07:31:37;;;;;;;40.80;32.23;;;;;;;16.54;89.96;100277.59;1751763;81;25741;-79
2021/09/16 07:34:04;;;;;;;43.48;34.18;;;;;;;16.63;89.95;100283.48;1723860;81;27122;-78
2021/09/16 07:36:31;;;;;;;43.78;33.42;;;;;;;16.71;89.82;100282.61;1676562;81;25890;-79
2021/09/16 07:38:58;;;;;;;44.03;33.13;;;;;;;16.79;90.11;100283.61;1731495;81;25833;-78
2021/09/16 07:41:25;;;;;;;42.98;32.67;;;;;;;16.86;89.74;100278.08;1759141;81;25879;-78
2021/09/16 07:43:52;;;;;;;40.03;32.40;;;;;;;16.93;89.61;100282.34;1722019;81;26387;-78
2021/09/16 07:46:19;;;;;;;45.55;32.88;;;;;;;17.01;89.38;100289.26;1691944;81;27460;-78
2021/09/16 07:48:46;;;;;;;44.60;32.85;;;;;;;17.07;89.50;100290.19;1735740;81;26551;-78
2021/09/16 07:51:14;;;;;;;39.50;31.73;;;;;;;17.14;89.32;100285.48;1756517;81;26369;-78
2021/09/16 07:53:41;;;;;;;43.13;32.75;;;;;;;17.18;89.05;100283.42;1700168;82;25762;-78
2021/09/16 07:56:08;;;;;;;38.98;31.55;;;;;;;17.24;89.19;100279.77;1687983;81;26501;-78
2021/09/16 07:58:35;;;;;;;41.18;29.80;;;;;;;17.30;89.36;100281.52;1717136;81;27518;-78
2021/09/16 08:01:02;;;;;;;38.25;29.72;;;;;;;17.37;89.11;100280.86;1726074;81;25848;-78
2021/09/16 08:03:29;;;;;;;41.45;31.60;;;;;;;17.44;88.86;100278.85;1708378;81;25845;-78
2021/09/16 08:05:56;;;;;;;43.60;31.55;;;;;;;17.50;88.55;100277.09;1681423;81;25894;-78
2021/09/16 08:08:23;;;;;;;39.35;31.05;;;;;;;17.52;88.27;100276.32;1722488;81;25953;-78
2021/09/16 08:10:50;;;;;;;36.38;30.17;;;;;;;17.58;88.64;100277.54;1735442;81;27434;-78
2021/09/16 08:13:17;;;;;;;37.30;31.05;;;;;;;17.66;88.64;100273.65;1720090;81;25842;-78
2021/09/16 08:15:45;;;;;;;44.75;30.45;;;;;;;17.75;88.60;100275.44;1710704;81;26501;-79
2021/09/16 08:18:12;;;;;;;43.80;30.50;;;;;;;17.79;88.23;100272.02;1751840;81;25851;-78
2021/09/16 08:20:45;;;;;;;40.83;30.80;;;;;;;17.83;88.15;100274.53;1748946;81;25879;-79
2021/09/16 08:23:11;;;;;;;37.13;28.38;;;;;;;17.86;88.02;100278.09;1744069;81;26940;-79
2021/09/16 08:25:38;;;;;;;40.98;30.72;;;;;;;17.89;88.11;100278.97;1692834;82;25924;-78
2021/09/16 08:28:05;;;;;;;40.78;29.95;;;;;;;17.92;87.87;100279.03;1739564;81;25830;-79
2021/09/16 08:30:33;;;;;;;44.33;30.45;;;;;;;17.96;87.64;100280.19;1735453;81;25858;-78
2021/09/16 08:33:00;;;;;;;38.28;29.60;;;;;;;17.98;87.75;100277.53;1720222;81;25789;-78
2021/09/16 08:35:28;;;;;;;37.63;29.45;;;;;;;18.03;87.76;100274.06;1690184;82;26734;-78
2021/09/16 08:37:55;;;;;;;39.25;29.23;;;;;;;18.09;87.78;100276.62;1718697;81;25837;-78
2021/09/16 08:40:22;;;;;;;40.60;29.85;;;;;;;18.15;87.48;100274.84;1751795;81;26463;-77
2021/09/16 08:42:51;;;;;;;37.48;29.67;;;;;;;18.22;87.62;100261.97;1741483;81;26114;-78
2021/09/16 08:45:21;;;;;;;40.38;29.50;;;;;;;18.29;87.82;100259.38;1725221;81;25803;-78
2021/09/16 08:47:52;;;;;;;40.45;30.02;;;;;;;18.37;87.51;100252.71;1721638;81;27529;-79
2021/09/16 08:50:24;;;;;;;37.60;28.90;;;;;;;18.44;87.34;100261.55;1745057;81;25745;-79
2021/09/16 08:52:51;;;;;;;36.45;28.65;;;;;;;18.55;87.49;100261.18;1720166;81;25881;-78
2021/09/16 08:55:20;;;;;;;37.73;27.20;;;;;;;18.65;87.25;100251.88;1691088;81;26508;-79
2021/09/16 08:57:54;;;;;;;37.58;28.45;;;;;;;18.75;87.11;100247.42;1731802;81;25754;-79
2021/09/16 09:00:22;;;;;;;35.83;28.05;;;;;;;18.87;86.78;100262.23;1751063;81;27524;-78
2021/09/16 09:02:51;;;;;;;32.10;27.45;;;;;;;18.95;86.55;100265.34;1701426;82;25942;-79
2021/09/16 09:05:20;;;;;;;33.28;26.55;;;;;;;19.01;86.69;100263.55;1676152;83;25395;-78
2021/09/16 09:07:51;;;;;;;33.98;26.90;;;;;;;19.06;86.54;100261.70;1696460;82;25828;-79
2021/09/16 09:10:38;;;;;;;;;;;;;;;19.11;86.17;100266.39;1735115;81;25998;-78
2021/09/16 09:13:21;;;;;;;31.70;24.52;;;;;;;19.16;86.42;100265.91;1660767;82;27007;-79
2021/09/16 09:16:00;;;;;;;34.15;27.37;;;;;;;19.23;86.93;100260.30;1700485;82;26139;-79
2021/09/16 09:18:41;;;;;;;34.75;25.82;;;;;;;19.29;85.95;100255.22;1679351;83;25755;-79
2021/09/16 09:21:10;;;;;;;33.10;23.98;;;;;;;19.32;86.01;100258.80;1736625;82;25765;-80
2021/09/16 09:23:45;;;;;;;32.53;25.88;;;;;;;19.35;85.82;100257.52;1668040;82;25861;-79
2021/09/16 09:26:27;;;;;;;36.30;26.35;;;;;;;19.36;85.59;100261.33;1703828;82;27086;-78
2021/09/16 09:29:11;;;;;;;31.95;24.30;;;;;;;19.38;85.20;100263.25;1705200;82;26622;-79
2021/09/16 09:32:05;;;;;;;33.30;24.30;;;;;;;19.40;85.30;100260.27;1731872;82;25816;-78
2021/09/16 09:34:38;;;;;;;30.92;24.52;;;;;;;19.42;85.26;100252.73;1684302;82;26019;-79
2021/09/16 09:37:18;;;;;;;29.72;24.05;;;;;;;19.43;85.17;100254.34;1673468;82;26632;-78
2021/09/16 09:39:49;;;;;;;27.73;23.65;;;;;;;19.44;85.17;100257.36;1735756;82;27452;-78
2021/09/16 09:42:26;;;;;;;34.73;24.67;;;;;;;19.47;85.15;100254.95;1709666;82;25853;-78
2021/09/16 09:44:57;;;;;;;30.00;24.30;;;;;;;19.51;85.33;100252.02;1703631;82;25875;-79
2021/09/16 09:47:44;;;;;;;;;;;;;;;19.58;85.11;100258.08;1689533;82;26643;-79
2021/09/16 09:50:25;;;;;;;27.17;22.50;;;;;;;19.65;85.35;100255.17;1737169;82;25790;-79
2021/09/16 09:52:57;;;;;;;28.45;24.12;;;;;;;19.70;85.29;100251.96;1680494;82;27466;-78
2021/09/16 09:55:25;;;;;;;31.07;24.55;;;;;;;19.77;85.06;100249.88;1657121;83;25343;-78
2021/09/16 09:58:03;;;;;;;32.83;25.27;;;;;;;19.86;85.17;100250.25;1719213;82;26480;-78
2021/09/16 10:00:30;;;;;;;28.83;23.85;;;;;;;19.96;85.15;100252.53;1722345;82;26479;-79
2021/09/16 10:02:59;;;;;;;29.85;23.98;;;;;;;20.08;85.03;100247.48;1685823;81;25863;-78
2021/09/16 10:05:30;;;;;;;29.75;23.85;;;;;;;20.20;84.75;100258.51;1689731;81;27422;-78
2021/09/16 10:08:08;;;;;;;29.23;23.57;;;;;;;20.27;84.38;100259.12;1785603;80;25783;-79
2021/09/16 10:10:40;;;;;;;34.73;25.00;;;;;;;20.33;84.04;100263.53;1753293;81;25899;-79
2021/09/16 10:13:08;;;;;;;32.05;24.30;;;;;;;20.41;84.24;100266.30;1707933;81;26487;-78
2021/09/16 10:15:35;;;;;;;32.55;24.98;;;;;;;20.47;83.94;100268.81;1721551;81;26524;-78
2021/09/16 10:18:02;;;;;;;37.03;25.12;;;;;;;20.55;83.10;100263.45;1742454;81;28263;-78
2021/09/16 10:20:29;;;;;;;32.08;24.18;;;;;;;20.60;82.94;100267.02;1773959;80;25771;-79
2021/09/16 10:23:01;;;;;;;33.73;24.72;;;;;;;20.66;82.96;100267.86;1743198;80;25903;-78
2021/09/16 10:25:29;;;;;;;32.07;24.37;;;;;;;20.71;82.68;100271.47;1740747;80;26108;-79
2021/09/16 10:28:06;;;;;;;30.20;24.37;;;;;;;20.73;82.16;100273.38;1755478;81;25771;-79
2021/09/16 10:30:49;;;;;;;31.40;24.72;;;;;;;20.75;81.82;100265.77;1736713;81;28184;-79
2021/09/16 10:33:27;;;;;;;28.02;24.02;;;;;;;20.76;82.16;100260.59;1724938;81;25755;-79
2021/09/16 10:36:08;;;;;;;30.90;24.27;;;;;;;20.77;81.81;100262.78;1737052;80;25921;-79
2021/09/16 10:38:51;;;;;;;29.65;24.18;;;;;;;20.78;81.67;100260.35;1768768;80;26551;-79
2021/09/16 10:41:34;;;;;;;33.10;25.35;;;;;;;20.81;82.03;100261.73;1743991;80;25881;-79
2021/09/16 10:44:18;;;;;;;31.68;25.77;;;;;;;20.84;81.61;100259.84;1737303;81;27419;-80
2021/09/16 10:46:47;;;;;;;31.50;25.17;;;;;;;20.87;81.48;100256.03;1727641;80;26260;-79
2021/09/16 10:49:28;;;;;;;30.20;23.40;;;;;;;20.92;81.56;100252.00;1752801;80;26597;-80
2021/09/16 10:52:13;;;;;;;32.20;25.40;;;;;;;20.99;81.73;100249.05;1732685;81;25820;-79
2021/09/16 10:54:57;;;;;;;30.57;25.72;;;;;;;21.04;81.60;100247.19;1771939;80;25677;-79
2021/09/16 10:57:35;;;;;;;32.65;24.40;;;;;;;21.09;80.85;100243.14;1737997;80;27541;-79
2021/09/16 11:00:17;;;;;;;30.02;24.85;;;;;;;21.14;80.99;100247.80;1774078;80;25754;-79
2021/09/16 11:02:52;;;;;;;35.30;27.25;;;;;;;21.21;81.79;100251.13;1771190;80;26512;-79
2021/09/16 11:05:21;;;;;;;32.80;25.35;;;;;;;21.28;81.23;100249.78;1733040;80;26109;-79
2021/09/16 11:07:52;;;;;;;31.33;26.40;;;;;;;21.31;80.83;100246.54;1660213;81;25849;-80
2021/09/16 11:10:27;;;;;;;33.40;25.50;;;;;;;21.35;80.31;100250.37;1761057;81;28149;-79
2021/09/16 11:13:04;;;;;;;33.63;24.63;;;;;;;21.40;80.55;100249.04;1752365;80;25438;-79
2021/09/16 11:15:35;;;;;;;28.27;24.40;;;;;;;21.49;80.18;100252.88;1726067;81;25925;-79
2021/09/16 11:18:15;;;;;;;24.32;21.60;;;;;;;21.55;80.09;100240.64;1704697;81;25839;-79
2021/09/16 11:20:45;;;;;;;28.30;23.32;;;;;;;21.60;79.98;100242.03;1760171;81;25707;-79
2021/09/16 11:23:15;;;;;;;30.50;23.42;;;;;;;21.66;79.71;100241.78;1759434;81;28010;-79
2021/09/16 11:25:46;;;;;;;29.80;23.77;;;;;;;21.74;79.57;100237.70;1703632;81;25922;-79
2021/09/16 11:28:14;;;;;;;27.73;22.05;;;;;;;21.81;79.76;100239.07;1683308;81;25842;-80
2021/09/16 11:30:44;;;;;;;26.65;22.50;;;;;;;21.88;79.66;100237.48;1722704;81;25847;-79